Time;durP1;ratioP1;P1;durP2;ratioP2;P2;SDS_P1;SDS_P2;PMS_P1;PMS_P2;Temp;Humidity;BMP_temperature;BMP_pressure;BME280_temperature;BME280_humidity;BME280_pressure;Samples;Min_cycle;Max_cycle;Signal;HPM_P1;HPM_P2
2022/11/13 05:52:33;;;;;;;23.52;7.35;;;5.70;99.90;;;;;;12349668;23;21622;-77
2022/11/13 05:57:35;;;;;;;40.47;9.27;;;5.70;99.90;;;;;;10208691;29;20040;-75
2022/11/13 06:02:37;;;;;;;28.35;8.30;;;5.40;99.90;;;;;;10214026;29;20143;-81
2022/11/13 06:07:40;;;;;;;17.48;7.75;;;5.40;99.90;;;;;;10218914;29;20043;-77
2022/11/13 06:12:42;;;;;;;12.63;7.22;;;5.40;99.90;;;;;;10205867;29;20052;-76
2022/11/13 06:17:46;;;;;;;10.85;7.22;;;5.60;99.90;;;;;;10213198;28;20048;-76
2022/11/13 06:22:49;;;;;;;27.63;7.85;;;5.60;99.90;;;;;;10228340;29;20473;-77
2022/11/13 06:27:52;;;;;;;11.63;7.10;;;5.60;99.90;;;;;;10215679;29;20047;-78
2022/11/13 06:32:54;;;;;;;9.00;6.70;;;5.50;99.90;;;;;;10207521;29;20107;-79
2022/11/13 06:37:58;;;;;;;11.52;6.75;;;5.70;99.90;;;;;;10210718;29;20453;-78
2022/11/13 06:43:00;;;;;;;9.77;6.15;;;5.70;99.90;;;;;;10218252;29;20051;-77
2022/11/13 06:48:01;;;;;;;8.68;6.05;;;5.80;99.90;;;;;;10204296;29;20111;-78
2022/11/13 06:53:05;;;;;;;9.45;6.43;;;5.80;99.90;;;;;;10222066;29;20059;-75
2022/11/13 06:58:07;;;;;;;9.80;6.63;;;5.90;99.90;;;;;;10225418;29;20425;-75
2022/11/13 07:03:16;;;;;;;8.57;6.10;;;5.80;99.90;;;;;;10229557;29;20048;-76
2022/11/13 07:08:19;;;;;;;8.43;6.32;;;5.90;99.90;;;;;;10221890;29;20043;-78
2022/11/13 07:13:21;;;;;;;8.18;5.97;;;5.90;99.90;;;;;;10203622;29;20059;-80
2022/11/13 07:18:23;;;;;;;8.88;6.47;;;5.90;99.90;;;;;;10186157;29;20051;-76
2022/11/13 07:23:27;;;;;;;8.52;6.28;;;5.90;99.90;;;;;;10202773;29;20060;-78
2022/11/13 07:28:29;;;;;;;10.68;6.75;;;5.90;99.90;;;;;;10211237;29;20481;-79
2022/11/13 07:33:30;;;;;;;10.40;7.15;;;6.00;99.90;;;;;;10184622;29;20051;-75
2022/11/13 07:38:34;;;;;;;9.60;6.38;;;5.90;99.90;;;;;;10182442;29;20048;-77
2022/11/13 07:43:36;;;;;;;9.20;6.72;;;5.90;99.90;;;;;;10209321;29;20402;-79
2022/11/13 07:48:38;;;;;;;11.73;7.45;;;5.90;99.90;;;;;;10204653;29;20056;-79
2022/11/13 07:53:41;;;;;;;13.60;7.93;;;5.90;99.90;;;;;;10206175;29;20040;-76
2022/11/13 07:58:43;;;;;;;11.65;7.20;;;6.00;99.90;;;;;;10216609;29;20052;-79
2022/11/13 08:03:45;;;;;;;10.77;7.32;;;6.00;99.90;;;;;;10208880;29;20044;-79
2022/11/13 08:08:49;;;;;;;10.27;7.50;;;6.00;99.90;;;;;;10178358;29;20051;-79
2022/11/13 08:13:52;;;;;;;11.32;7.63;;;6.00;99.90;;;;;;10211672;29;20503;-81
2022/11/13 08:18:54;;;;;;;62.22;9.60;;;6.10;99.90;;;;;;10232540;29;20459;-78
2022/11/13 08:23:57;;;;;;;13.05;8.43;;;5.90;99.90;;;;;;10234360;29;20134;-78
2022/11/13 08:28:59;;;;;;;12.13;7.68;;;5.80;99.90;;;;;;10214721;29;20044;-76
2022/11/13 08:34:01;;;;;;;13.18;8.25;;;5.80;99.90;;;;;;10194002;29;20433;-77
2022/11/13 08:39:04;;;;;;;18.33;8.18;;;5.80;99.90;;;;;;10182837;29;20445;-78
2022/11/13 08:44:06;;;;;;;10.85;7.93;;;5.90;99.90;;;;;;10205213;29;20051;-77
2022/11/13 08:49:08;;;;;;;12.45;8.48;;;5.90;99.90;;;;;;10194102;29;20504;-77
2022/11/13 08:54:12;;;;;;;25.48;9.18;;;5.80;99.90;;;;;;10209264;29;20111;-75
2022/11/13 08:59:13;;;;;;;48.55;10.23;;;5.90;99.90;;;;;;10216624;29;20080;-75
2022/11/13 09:04:15;;;;;;;15.65;10.00;;;5.70;99.90;;;;;;10214937;29;20106;-78
2022/11/13 09:09:19;;;;;;;32.03;10.90;;;5.70;99.90;;;;;;10213185;29;20560;-79
2022/11/13 09:14:21;;;;;;;12.90;9.05;;;5.70;99.90;;;;;;10195808;29;20124;-78
2022/11/13 09:19:23;;;;;;;15.48;9.35;;;5.80;99.90;;;;;;10182575;29;20048;-77
2022/11/13 09:24:26;;;;;;;17.65;10.57;;;5.90;99.90;;;;;;10184872;29;20044;-77
2022/11/13 09:29:28;;;;;;;17.30;9.88;;;5.80;99.90;;;;;;10209802;29;20107;-75
2022/11/13 09:34:32;;;;;;;17.15;10.20;;;5.80;99.90;;;;;;10219091;29;20088;-75
2022/11/13 09:39:35;;;;;;;13.52;9.73;;;5.70;99.90;;;;;;10211975;29;20090;-75
2022/11/13 09:44:44;;;;;;;13.55;8.68;;;5.90;99.90;;;;;;10199203;29;20094;-79
2022/11/13 09:49:49;;;;;;;14.60;9.40;;;6.10;99.90;;;;;;10212887;29;20047;-76
2022/11/13 09:54:53;;;;;;;12.77;9.02;;;6.00;99.90;;;;;;10201120;29;20063;-76
2022/11/13 10:00:00;;;;;;;14.52;9.80;;;6.00;99.90;;;;;;10185301;29;20047;-78
2022/11/13 10:05:13;;;;;;;11.43;8.52;;;6.00;99.90;;;;;;10201454;29;20048;-76
2022/11/13 10:10:39;;;;;;;11.98;9.18;;;6.10;99.90;;;;;;10211253;29;20083;-76
2022/11/13 10:15:43;;;;;;;12.05;8.75;;;6.40;99.90;;;;;;10207163;29;21407;-80
2022/11/13 10:20:50;;;;;;;11.85;8.80;;;6.70;99.90;;;;;;10204482;29;20055;-78
2022/11/13 10:25:57;;;;;;;12.77;9.05;;;6.80;99.90;;;;;;10194605;29;20056;-77
2022/11/13 10:30:59;;;;;;;12.25;8.88;;;6.90;99.90;;;;;;10199702;29;20047;-77
2022/11/13 10:36:13;;;;;;;12.35;9.18;;;7.20;99.90;;;;;;10198452;29;20138;-76
2022/11/13 10:41:20;;;;;;;11.32;8.40;;;7.30;99.90;;;;;;10210475;29;20078;-76
2022/11/13 10:46:24;;;;;;;12.75;9.20;;;7.40;99.90;;;;;;10189523;29;20116;-76
2022/11/13 10:51:30;;;;;;;13.27;10.55;;;7.40;99.90;;;;;;10200590;29;20107;-76
2022/11/13 10:56:35;;;;;;;13.57;10.77;;;7.00;99.90;;;;;;10196601;29;20078;-77
2022/11/13 11:01:37;;;;;;;14.07;9.75;;;6.80;99.90;;;;;;10199130;29;20482;-78
2022/11/13 11:06:41;;;;;;;16.02;11.15;;;6.80;99.90;;;;;;10196394;29;20075;-79
2022/11/13 11:12:18;;;;;;;12.73;9.55;;;6.90;99.90;;;;;;10235435;29;20082;-75
2022/11/13 11:17:24;;;;;;;13.00;9.43;;;7.00;99.90;;;;;;10228242;29;20569;-76
2022/11/13 11:22:32;;;;;;;12.35;9.65;;;7.30;99.90;;;;;;10198449;29;20493;-73
2022/11/13 11:27:41;;;;;;;12.70;9.98;;;7.40;99.90;;;;;;10193801;29;20079;-76
2022/11/13 11:32:50;;;;;;;11.82;9.15;;;7.60;99.90;;;;;;10201043;29;20103;-79
2022/11/13 11:38:01;;;;;;;13.20;10.07;;;7.80;99.90;;;;;;10198056;29;20106;-83
2022/11/13 11:43:18;;;;;;;13.50;10.60;;;8.10;99.90;;;;;;10192675;29;20056;-82
2022/11/13 11:48:25;;;;;;;13.13;10.60;;;8.10;99.90;;;;;;10203179;29;20048;-81
2022/11/13 11:53:40;;;;;;;12.57;10.57;;;8.20;99.90;;;;;;10177480;29;20060;-76
2022/11/13 11:59:24;;;;;;;13.10;10.10;;;8.30;99.90;;;;;;10174463;29;20486;-77
2022/11/13 12:04:40;;;;;;;13.20;9.48;;;8.60;99.90;;;;;;10207353;29;20056;-77
2022/11/13 12:10:00;;;;;;;12.95;9.38;;;8.90;99.90;;;;;;10209350;29;20066;-74
2022/11/13 12:15:09;;;;;;;13.00;10.02;;;9.00;99.90;;;;;;10209293;29;20106;-76
2022/11/13 12:20:30;;;;;;;13.13;9.15;;;9.20;99.90;;;;;;10203999;29;20052;-76
2022/11/13 12:25:40;;;;;;;12.85;9.73;;;9.60;99.90;;;;;;10197649;29;20095;-74
2022/11/13 12:30:54;;;;;;;12.52;9.38;;;10.00;99.90;;;;;;10213550;29;20047;-77
2022/11/13 12:35:57;;;;;;;11.18;8.35;;;10.40;99.90;;;;;;10201158;29;20478;-78
2022/11/13 12:41:09;;;;;;;12.27;8.98;;;10.70;99.90;;;;;;10202657;29;20135;-78
2022/11/13 12:46:13;;;;;;;11.90;8.73;;;11.00;99.90;;;;;;10209319;29;20461;-78
2022/11/13 12:51:17;;;;;;;10.82;7.82;;;11.30;99.90;;;;;;10189253;29;20056;-78
2022/11/13 12:56:33;;;;;;;10.27;8.60;;;11.80;99.90;;;;;;10181182;29;20064;-76
2022/11/13 13:01:45;;;;;;;10.60;8.63;;;12.40;99.90;;;;;;10197869;29;20055;-78
2022/11/13 13:07:02;;;;;;;10.23;8.50;;;12.90;99.00;;;;;;10220563;29;20047;-74
2022/11/13 13:12:14;;;;;;;10.32;8.15;;;13.90;97.10;;;;;;10220172;29;20047;-75
2022/11/13 13:17:23;;;;;;;10.02;8.27;;;14.90;95.10;;;;;;10207343;29;20052;-76
2022/11/13 13:22:28;;;;;;;9.65;7.38;;;17.70;89.30;;;;;;10199413;29;20059;-74
2022/11/13 13:27:37;;;;;;;8.13;7.32;;;21.10;72.50;;;;;;10201946;29;20457;-78
2022/11/13 13:33:07;;;;;;;7.88;7.07;;;24.80;58.60;;;;;;10190152;29;20048;-77
2022/11/13 13:38:18;;;;;;;7.32;6.55;;;27.00;52.00;;;;;;10201856;29;20086;-79
2022/11/13 13:43:36;;;;;;;7.32;6.43;;;29.30;47.60;;;;;;10214401;29;20055;-78
2022/11/13 13:48:42;;;;;;;6.95;5.50;;;29.80;44.50;;;;;;10196201;29;20104;-78
2022/11/13 13:53:45;;;;;;;6.82;5.78;;;30.60;43.40;;;;;;10202497;29;20052;-76
2022/11/13 13:58:48;;;;;;;10.00;7.13;;;31.30;43.00;;;;;;10193632;29;20052;-75
2022/11/13 14:04:04;;;;;;;7.20;5.45;;;30.50;42.50;;;;;;10199618;29;20127;-76
2022/11/13 14:09:21;;;;;;;7.45;5.70;;;30.50;42.00;;;;;;10192542;29;20063;-77
2022/11/13 14:14:25;;;;;;;6.28;5.47;;;30.70;42.30;;;;;;10175387;29;20059;-77
2022/11/13 14:19:28;;;;;;;6.40;5.32;;;30.80;41.80;;;;;;10174456;29;20613;-76
2022/11/13 14:24:33;;;;;;;12.02;10.82;;;30.20;41.90;;;;;;10191917;29;20044;-75
2022/11/13 14:29:39;;;;;;;8.53;7.47;;;29.80;42.60;;;;;;10210461;29;20083;-77
2022/11/13 14:34:45;;;;;;;6.97;6.27;;;29.60;42.40;;;;;;10202604;29;20048;-78
2022/11/13 14:39:48;;;;;;;5.97;5.38;;;29.20;42.30;;;;;;10187735;29;20170;-78
2022/11/13 14:44:50;;;;;;;10.90;9.80;;;29.20;42.40;;;;;;10197648;29;20121;-76
2022/11/13 14:49:54;;;;;;;10.48;8.98;;;29.50;42.60;;;;;;10195962;29;20052;-76
2022/11/13 14:55:05;;;;;;;7.82;6.43;;;28.70;43.20;;;;;;10193732;29;20469;-78
2022/11/13 15:00:16;;;;;;;6.90;5.60;;;28.00;43.80;;;;;;10206359;29;20052;-76
2022/11/13 15:05:19;;;;;;;9.00;7.43;;;27.50;44.50;;;;;;10229339;29;20549;-76
2022/11/13 15:10:25;;;;;;;8.15;7.35;;;27.00;45.10;;;;;;10199015;29;20056;-77
2022/11/13 15:15:30;;;;;;;7.75;6.68;;;25.90;46.00;;;;;;10205761;29;20052;-77
2022/11/13 15:20:33;;;;;;;6.97;6.18;;;24.80;48.00;;;;;;10187758;29;20051;-74
2022/11/13 15:25:35;;;;;;;7.32;6.13;;;23.50;49.30;;;;;;10212890;29;20077;-78
2022/11/13 15:30:37;;;;;;;7.70;6.15;;;22.50;51.50;;;;;;10206471;29;20058;-76
2022/11/13 15:35:42;;;;;;;6.50;5.55;;;21.20;53.80;;;;;;10210794;29;20111;-81
2022/11/13 15:40:43;;;;;;;9.10;7.10;;;19.70;57.30;;;;;;10209115;29;20071;-81
2022/11/13 15:45:46;;;;;;;7.13;5.85;;;18.40;60.10;;;;;;10208705;29;20056;-78
2022/11/13 15:50:50;;;;;;;8.13;6.10;;;17.20;62.70;;;;;;10231094;29;20048;-76
2022/11/13 15:55:52;;;;;;;9.27;6.65;;;16.30;65.60;;;;;;10207139;29;20064;-77
2022/11/13 16:00:54;;;;;;;12.55;8.60;;;15.60;67.60;;;;;;10225024;29;20055;-76
2022/11/13 16:05:58;;;;;;;9.85;7.10;;;15.00;70.40;;;;;;10247707;28;20051;-78
2022/11/13 16:11:00;;;;;;;9.07;6.88;;;14.50;72.90;;;;;;10249403;29;20061;-77
2022/11/13 16:16:03;;;;;;;9.23;6.95;;;14.00;75.60;;;;;;10236431;29;20130;-78
2022/11/13 16:21:10;;;;;;;12.32;8.50;;;13.40;78.70;;;;;;10222720;29;20062;-76
2022/11/13 16:26:14;;;;;;;13.82;9.05;;;13.10;82.80;;;;;;10221397;29;20107;-77
2022/11/13 16:31:16;;;;;;;11.23;7.65;;;12.80;87.00;;;;;;10206045;29;20054;-75
2022/11/13 16:36:21;;;;;;;9.73;7.80;;;12.40;90.70;;;;;;10202118;29;20052;-76
2022/11/13 16:41:23;;;;;;;11.63;8.75;;;11.90;91.40;;;;;;10182323;29;20462;-81
2022/11/13 16:46:30;;;;;;;12.40;9.15;;;11.20;93.30;;;;;;10180949;29;20048;-81
2022/11/13 16:51:33;;;;;;;11.73;9.00;;;11.00;97.30;;;;;;10182948;29;20103;-78
2022/11/13 16:56:36;;;;;;;15.43;10.88;;;11.00;99.20;;;;;;10206250;29;20087;-80
2022/11/13 17:01:38;;;;;;;13.73;9.98;;;10.70;98.50;;;;;;10207772;29;20122;-80
2022/11/13 17:06:41;;;;;;;14.25;10.63;;;10.50;99.90;;;;;;10209345;29;20047;-80
2022/11/13 17:11:44;;;;;;;13.68;9.82;;;10.30;99.90;;;;;;10216105;29;20151;-75
2022/11/13 17:16:46;;;;;;;13.90;9.60;;;10.30;99.90;;;;;;10215560;29;20047;-77
2022/11/13 17:21:51;;;;;;;12.93;9.52;;;10.20;99.90;;;;;;10213049;29;20087;-77
2022/11/13 17:26:54;;;;;;;15.05;10.43;;;10.00;99.90;;;;;;10215030;29;20146;-77
2022/11/13 17:31:58;;;;;;;11.57;8.63;;;9.90;99.90;;;;;;10203546;29;20056;-75
2022/11/13 17:37:10;;;;;;;12.25;8.57;;;9.70;99.90;;;;;;10211442;29;20150;-75
2022/11/13 17:42:12;;;;;;;12.65;9.20;;;9.40;99.90;;;;;;10209225;29;20094;-77
2022/11/13 17:47:14;;;;;;;16.50;11.60;;;9.40;99.90;;;;;;10207426;29;20317;-76
2022/11/13 17:52:18;;;;;;;22.38;14.00;;;9.20;99.90;;;;;;10206522;29;20052;-77
2022/11/13 17:57:21;;;;;;;21.77;13.27;;;9.30;99.90;;;;;;10209388;29;20505;-76
2022/11/13 18:02:24;;;;;;;24.08;15.63;;;9.20;99.90;;;;;;10218157;29;20490;-76
2022/11/13 18:07:28;;;;;;;26.73;16.65;;;9.10;99.90;;;;;;10237485;29;20478;-77
2022/11/13 18:12:30;;;;;;;25.30;16.50;;;9.10;99.90;;;;;;10228753;29;20076;-77
2022/11/13 18:17:32;;;;;;;28.20;16.92;;;9.10;99.90;;;;;;10232576;29;20111;-77
2022/11/13 18:22:36;;;;;;;24.90;15.55;;;9.10;99.90;;;;;;10234831;29;20051;-79
2022/11/13 18:27:39;;;;;;;27.92;17.30;;;9.20;99.90;;;;;;10223669;29;20166;-75
2022/11/13 18:32:40;;;;;;;24.80;16.27;;;9.20;99.90;;;;;;10230670;29;20048;-76
2022/11/13 18:37:44;;;;;;;23.45;15.38;;;9.20;99.90;;;;;;10253743;29;20102;-76
2022/11/13 18:42:46;;;;;;;25.02;16.63;;;9.20;99.90;;;;;;10215912;29;20115;-76
2022/11/13 18:47:48;;;;;;;23.92;15.48;;;9.20;99.90;;;;;;10236561;29;20058;-78
2022/11/13 18:52:52;;;;;;;24.35;16.05;;;9.10;99.90;;;;;;10226015;29;20048;-75
2022/11/13 18:57:54;;;;;;;23.17;15.07;;;9.20;99.90;;;;;;10224609;29;20052;-77
2022/11/13 19:02:57;;;;;;;22.65;15.00;;;9.20;99.90;;;;;;10199443;29;20072;-76
2022/11/13 19:08:00;;;;;;;25.67;14.82;;;9.10;99.90;;;;;;10204970;29;20087;-78
2022/11/13 19:13:02;;;;;;;20.95;14.57;;;9.10;99.90;;;;;;10246171;29;20056;-74
2022/11/13 19:18:06;;;;;;;23.00;14.68;;;9.00;99.90;;;;;;10246071;29;20079;-76
2022/11/13 19:23:10;;;;;;;21.38;13.73;;;9.00;99.90;;;;;;10220327;29;20107;-80
2022/11/13 19:28:13;;;;;;;21.50;13.88;;;8.90;99.90;;;;;;10184297;29;20108;-79
2022/11/13 19:33:15;;;;;;;19.88;13.35;;;8.90;99.90;;;;;;10183737;29;20466;-77
2022/11/13 19:38:19;;;;;;;22.70;14.77;;;8.90;99.90;;;;;;10178306;29;20044;-78
2022/11/13 19:43:21;;;;;;;21.13;13.63;;;8.80;99.90;;;;;;10205472;29;20062;-78
2022/11/13 19:48:23;;;;;;;22.33;13.93;;;8.60;99.90;;;;;;10199981;29;20099;-81
2022/11/13 19:53:26;;;;;;;24.35;14.30;;;8.40;99.90;;;;;;10209288;29;20509;-76
2022/11/13 19:58:28;;;;;;;45.13;28.40;;;8.20;99.90;;;;;;10193234;29;20051;-78
2022/11/13 20:03:30;;;;;;;25.42;14.32;;;8.40;99.90;;;;;;10195972;29;20047;-76
2022/11/13 20:08:35;;;;;;;23.88;14.95;;;8.10;99.90;;;;;;10210276;29;20056;-78
2022/11/13 20:13:40;;;;;;;22.42;13.38;;;7.90;99.90;;;;;;10181398;29;20429;-78
2022/11/13 20:18:44;;;;;;;23.23;14.60;;;8.00;99.90;;;;;;10196986;29;20074;-78
2022/11/13 20:23:47;;;;;;;22.85;14.82;;;8.00;99.90;;;;;;10174607;29;20059;-78
2022/11/13 20:28:49;;;;;;;20.75;13.30;;;8.00;99.90;;;;;;10160634;29;20685;-79
2022/11/13 20:33:54;;;;;;;24.05;14.13;;;7.90;99.90;;;;;;10155453;29;20080;-77
2022/11/13 20:38:58;;;;;;;27.38;16.35;;;7.90;99.90;;;;;;10160500;29;20231;-75
2022/11/13 20:44:02;;;;;;;27.88;16.77;;;7.90;99.90;;;;;;10167853;29;20052;-75
2022/11/13 20:49:04;;;;;;;25.35;16.27;;;7.80;99.90;;;;;;10201020;29;20055;-77
2022/11/13 20:54:08;;;;;;;27.25;17.02;;;7.80;99.90;;;;;;10219202;29;20489;-79
2022/11/13 20:59:10;;;;;;;26.17;16.38;;;7.70;99.90;;;;;;10218205;29;20048;-73
2022/11/13 21:04:12;;;;;;;26.10;16.83;;;7.70;99.90;;;;;;10215388;29;20059;-76
2022/11/13 21:09:15;;;;;;;24.85;16.83;;;7.60;99.90;;;;;;10213577;29;20194;-74
2022/11/13 21:14:17;;;;;;;26.10;17.75;;;7.50;99.90;;;;;;10164446;29;20102;-75
2022/11/13 21:19:21;;;;;;;24.75;16.35;;;7.40;99.90;;;;;;10177369;29;20052;-76
2022/11/13 21:24:24;;;;;;;26.77;16.95;;;7.30;99.90;;;;;;10187881;29;20051;-81
2022/11/13 21:29:26;;;;;;;24.75;16.17;;;7.30;99.90;;;;;;10218132;29;20102;-76
2022/11/13 21:34:28;;;;;;;22.17;15.48;;;7.30;99.90;;;;;;10220252;29;20052;-78
2022/11/13 21:39:31;;;;;;;22.88;14.60;;;7.30;99.90;;;;;;10235778;29;20047;-77
2022/11/13 21:44:33;;;;;;;22.70;15.00;;;7.20;99.90;;;;;;10239698;29;20615;-74
2022/11/13 21:49:35;;;;;;;24.08;15.57;;;7.20;99.90;;;;;;10243456;29;20048;-78
2022/11/13 21:54:38;;;;;;;22.65;14.45;;;7.10;99.90;;;;;;10216474;29;20550;-78
2022/11/13 21:59:40;;;;;;;23.10;14.63;;;7.10;99.90;;;;;;10180513;29;20060;-79
2022/11/13 22:04:42;;;;;;;21.02;13.80;;;7.10;99.90;;;;;;10203558;29;20047;-80
2022/11/13 22:09:45;;;;;;;22.58;15.32;;;7.10;99.90;;;;;;10218373;29;20059;-78
2022/11/13 22:14:47;;;;;;;22.35;14.82;;;7.00;99.90;;;;;;10187431;29;20048;-79
2022/11/13 22:19:49;;;;;;;22.52;14.65;;;7.00;99.90;;;;;;10217805;29;20044;-76
2022/11/13 22:24:52;;;;;;;22.25;14.93;;;7.10;99.90;;;;;;10215907;29;20075;-82
2022/11/13 22:29:54;;;;;;;23.70;14.75;;;7.00;99.90;;;;;;10192320;29;20537;-79
2022/11/13 22:34:56;;;;;;;21.48;14.65;;;7.00;99.90;;;;;;10184882;29;20106;-79
2022/11/13 22:39:59;;;;;;;20.98;14.00;;;6.90;99.90;;;;;;10216383;29;20463;-79
2022/11/13 22:45:01;;;;;;;21.40;14.02;;;6.80;99.90;;;;;;10215453;29;20087;-77
2022/11/13 22:50:03;;;;;;;21.92;13.38;;;6.60;99.90;;;;;;10215403;29;20056;-78
2022/11/13 22:55:09;;;;;;;19.83;12.27;;;6.50;99.90;;;;;;10216245;29;20079;-76
